createdAt,value
2023-05-24T00:01:56.684Z,2.90
2023-05-24T00:04:25.119Z,3.40
2023-05-24T00:06:54.727Z,2.85
2023-05-24T00:09:21.385Z,2.90
2023-05-24T00:11:47.853Z,3.22
2023-05-24T00:14:14.376Z,2.97
2023-05-24T00:16:41.596Z,3.03
2023-05-24T00:19:11.011Z,3.30
2023-05-24T00:21:37.555Z,3.17
2023-05-24T00:24:04.015Z,3.30
2023-05-24T00:26:30.540Z,2.90
2023-05-24T00:28:57.444Z,3.22
2023-05-24T00:31:23.917Z,3.50
2023-05-24T00:33:50.442Z,3.25
2023-05-24T00:36:18.457Z,3.35
2023-05-24T00:38:47.787Z,3.60
2023-05-24T00:41:16.294Z,3.13
2023-05-24T00:43:46.086Z,3.20
2023-05-24T00:46:22.478Z,3.20
2023-05-24T00:48:50.628Z,3.40
2023-05-24T00:51:18.081Z,3.17
2023-05-24T00:53:47.672Z,2.92
2023-05-24T00:56:15.830Z,3.28
2023-05-24T00:58:43.033Z,3.42
2023-05-24T01:01:10.764Z,3.30
2023-05-24T01:03:37.833Z,3.40
2023-05-24T01:06:07.218Z,3.80
2023-05-24T01:08:39.987Z,3.70
2023-05-24T01:11:18.410Z,3.22
2023-05-24T01:14:17.298Z,3.40
2023-05-24T01:17:00.566Z,4.05
2023-05-24T01:20:06.647Z,5.30
2023-05-24T01:22:54.677Z,6.00
2023-05-24T01:25:46.396Z,7.00
2023-05-24T01:28:13.534Z,8.27
2023-05-24T01:30:41.783Z,7.72
2023-05-24T01:33:09.000Z,8.60
2023-05-24T01:35:40.184Z,8.57
2023-05-24T01:38:07.168Z,7.82
2023-05-24T01:40:35.900Z,8.38
2023-05-24T01:43:13.312Z,8.32
2023-05-24T01:46:16.294Z,8.18
2023-05-24T01:49:15.775Z,8.07
2023-05-24T01:51:57.578Z,7.32
2023-05-24T01:54:26.366Z,7.88
2023-05-24T01:56:55.108Z,8.35
2023-05-24T01:59:24.083Z,8.05
2023-05-24T02:01:51.549Z,8.23
2023-05-24T02:04:18.186Z,7.43
2023-05-24T02:06:44.825Z,6.80
2023-05-24T02:09:11.300Z,6.97
2023-05-24T02:11:37.848Z,5.93
2023-05-24T02:14:04.357Z,5.43
2023-05-24T02:16:30.878Z,5.50
2023-05-24T02:18:57.989Z,5.80
2023-05-24T02:21:25.732Z,5.70
2023-05-24T02:23:52.421Z,5.95
2023-05-24T02:26:18.980Z,6.35
2023-05-24T02:28:45.484Z,7.15
2023-05-24T02:31:12.079Z,6.75
2023-05-24T02:33:38.661Z,6.22
2023-05-24T02:36:05.249Z,6.20
2023-05-24T02:38:32.093Z,6.45
2023-05-24T02:40:58.513Z,6.38
2023-05-24T02:43:25.112Z,6.40
2023-05-24T02:45:51.655Z,6.53
2023-05-24T02:48:18.111Z,6.43
2023-05-24T02:50:44.787Z,7.07
2023-05-24T02:53:11.794Z,7.78
2023-05-24T02:55:38.527Z,7.18
2023-05-24T02:58:05.101Z,6.85
2023-05-24T03:00:33.077Z,7.43
2023-05-24T03:03:02.945Z,6.22
2023-05-24T03:05:29.636Z,6.05
2023-05-24T03:07:56.712Z,6.03
2023-05-24T03:10:23.281Z,5.47
2023-05-24T03:12:50.359Z,4.75
2023-05-24T03:15:16.789Z,4.53
2023-05-24T03:17:43.440Z,4.43
2023-05-24T03:20:11.633Z,4.93
2023-05-24T03:22:38.541Z,4.10
2023-05-24T03:25:05.596Z,4.40
2023-05-24T03:27:32.048Z,4.72
2023-05-24T03:29:59.238Z,4.82
2023-05-24T03:32:29.422Z,4.53
2023-05-24T03:34:57.451Z,4.60
2023-05-24T03:37:24.445Z,4.07
2023-05-24T03:39:52.323Z,4.45
2023-05-24T03:42:48.663Z,4.40
2023-05-24T03:45:19.531Z,4.60
2023-05-24T03:47:50.781Z,4.88
2023-05-24T03:50:18.559Z,4.60
2023-05-24T03:52:44.981Z,4.40
2023-05-24T03:55:11.615Z,4.32
2023-05-24T03:57:38.534Z,3.80
2023-05-24T04:00:07.202Z,4.95
2023-05-24T04:02:40.776Z,5.22
2023-05-24T04:05:10.056Z,4.78
2023-05-24T04:07:38.186Z,5.25
2023-05-24T04:10:06.488Z,5.50
2023-05-24T04:12:33.505Z,5.57
2023-05-24T04:15:00.771Z,4.85
2023-05-24T04:17:30.294Z,5.05
2023-05-24T04:19:56.963Z,5.63
2023-05-24T04:22:25.637Z,5.10
2023-05-24T04:24:52.697Z,6.28
2023-05-24T04:27:19.257Z,5.10
2023-05-24T04:29:49.755Z,5.88
2023-05-24T04:32:17.749Z,4.88
2023-05-24T04:34:45.896Z,5.38
2023-05-24T04:37:13.882Z,5.82
2023-05-24T04:39:40.824Z,5.70
2023-05-24T04:42:07.781Z,5.38
2023-05-24T04:44:34.212Z,4.75
2023-05-24T04:47:02.739Z,5.25
2023-05-24T04:49:29.843Z,5.40
2023-05-24T04:51:57.034Z,5.25
2023-05-24T04:54:23.905Z,5.72
2023-05-24T04:56:50.481Z,5.10
2023-05-24T04:59:16.910Z,5.63
2023-05-24T05:01:43.662Z,5.40
2023-05-24T05:04:10.248Z,5.15
2023-05-24T05:06:39.611Z,4.85
2023-05-24T05:09:10.555Z,4.97
2023-05-24T05:11:37.047Z,5.32
2023-05-24T05:14:03.617Z,5.18
2023-05-24T05:16:30.734Z,5.22
2023-05-24T05:18:58.551Z,5.22
2023-05-24T05:21:25.063Z,5.15
2023-05-24T05:23:51.501Z,4.90
2023-05-24T05:26:17.940Z,5.28
2023-05-24T05:28:44.770Z,4.82
2023-05-24T05:31:11.185Z,5.25
2023-05-24T05:33:37.688Z,5.78
2023-05-24T05:36:04.239Z,3.90
2023-05-24T05:38:30.731Z,4.25
2023-05-24T05:40:57.158Z,4.90
2023-05-24T05:43:25.063Z,5.05
2023-05-24T05:45:51.513Z,4.85
2023-05-24T05:48:17.978Z,4.70
2023-05-24T05:50:44.499Z,4.97
2023-05-24T05:53:11.172Z,4.85
2023-05-24T05:55:37.607Z,5.20
2023-05-24T05:58:04.138Z,5.00
2023-05-24T06:00:30.648Z,5.70
2023-05-24T06:02:57.257Z,5.18
2023-05-24T06:05:23.782Z,4.93
2023-05-24T06:07:50.289Z,4.07
2023-05-24T06:10:16.887Z,4.72
2023-05-24T06:12:44.770Z,5.30
2023-05-24T06:15:12.084Z,4.63
2023-05-24T06:17:38.615Z,5.18
2023-05-24T06:20:15.591Z,4.55
2023-05-24T06:22:42.636Z,5.18
2023-05-24T06:25:09.700Z,5.22
2023-05-24T06:27:36.214Z,5.43
2023-05-24T06:30:02.760Z,5.55
2023-05-24T06:32:29.282Z,6.05
2023-05-24T06:34:55.805Z,5.38
2023-05-24T06:37:25.294Z,6.82
2023-05-24T06:39:51.781Z,5.97
2023-05-24T06:42:18.267Z,5.47
2023-05-24T06:44:46.005Z,5.75
2023-05-24T06:47:12.602Z,5.53
2023-05-24T06:49:39.162Z,4.82
2023-05-24T06:52:07.788Z,5.25
2023-05-24T06:54:35.099Z,5.32
2023-05-24T06:57:03.714Z,5.18
2023-05-24T06:59:30.346Z,5.88
2023-05-24T07:01:58.929Z,5.20
2023-05-24T07:04:26.819Z,5.35
2023-05-24T07:06:53.248Z,5.82
2023-05-24T07:09:19.903Z,5.50
2023-05-24T07:11:47.466Z,4.82
2023-05-24T07:14:13.940Z,5.75
2023-05-24T07:16:40.511Z,6.55
2023-05-24T07:19:07.350Z,6.00
2023-05-24T07:21:33.836Z,5.63
2023-05-24T07:24:00.298Z,5.55
2023-05-24T07:26:26.768Z,5.15
2023-05-24T07:28:53.310Z,5.45
2023-05-24T07:31:19.823Z,5.50
2023-05-24T07:33:46.267Z,5.10
2023-05-24T07:36:12.835Z,5.10
2023-05-24T07:38:39.295Z,4.53
2023-05-24T07:41:06.850Z,4.80
2023-05-24T07:43:33.514Z,5.05
2023-05-24T07:46:00.046Z,6.05
2023-05-24T07:48:26.692Z,5.03
2023-05-24T07:50:53.147Z,4.63
2023-05-24T07:53:19.953Z,5.85
2023-05-24T07:55:46.552Z,5.57
2023-05-24T07:58:12.977Z,5.18
2023-05-24T08:00:39.600Z,4.65
2023-05-24T08:03:06.404Z,4.63
2023-05-24T08:05:32.976Z,5.18
2023-05-24T08:07:59.462Z,3.92
2023-05-24T08:10:26.304Z,4.15
2023-05-24T08:12:55.155Z,3.95
2023-05-24T08:15:21.761Z,3.70
2023-05-24T08:17:48.805Z,4.00
2023-05-24T08:20:15.885Z,3.58
2023-05-24T08:22:43.129Z,4.15
2023-05-24T08:25:11.506Z,4.38
2023-05-24T08:27:38.210Z,4.18
2023-05-24T08:30:05.620Z,4.35
2023-05-24T08:32:32.755Z,4.00
2023-05-24T08:35:14.750Z,4.68
2023-05-24T08:37:46.121Z,3.60
2023-05-24T08:40:12.811Z,3.63
2023-05-24T08:42:40.647Z,3.88
2023-05-24T08:45:14.856Z,4.53
2023-05-24T08:47:42.594Z,4.25
2023-05-24T08:50:09.825Z,4.50
2023-05-24T08:52:36.841Z,4.63
2023-05-24T08:55:07.366Z,3.80
2023-05-24T08:57:35.746Z,4.15
2023-05-24T09:00:02.272Z,3.92
2023-05-24T09:02:30.222Z,3.58
2023-05-24T09:04:57.174Z,3.88
2023-05-24T09:07:24.169Z,3.47
2023-05-24T09:10:06.896Z,3.30
2023-05-24T09:12:38.051Z,3.50
2023-05-24T09:15:07.190Z,3.42
2023-05-24T09:17:38.086Z,3.90
2023-05-24T09:20:11.413Z,3.35
2023-05-24T09:25:10.183Z,3.60
2023-05-24T09:27:37.416Z,4.40
2023-05-24T09:30:10.049Z,3.92
2023-05-24T09:32:36.540Z,3.72
2023-05-24T09:35:03.154Z,3.67
2023-05-24T09:37:32.522Z,3.72
2023-05-24T09:39:59.577Z,3.17
2023-05-24T09:42:28.247Z,3.17
2023-05-24T09:45:11.946Z,3.08
2023-05-24T09:50:17.720Z,2.67
2023-05-24T09:52:45.036Z,3.33
2023-05-24T09:55:16.374Z,2.88
2023-05-24T09:57:52.050Z,3.30
2023-05-24T10:00:23.868Z,3.20
2023-05-24T10:03:13.898Z,3.03
2023-05-24T10:05:45.511Z,3.03
2023-05-24T10:08:14.220Z,3.28
2023-05-24T10:10:42.385Z,3.90
2023-05-24T10:13:10.043Z,3.40
2023-05-24T10:15:36.585Z,3.78
2023-05-24T10:18:10.413Z,3.03
2023-05-24T10:20:40.984Z,3.22
2023-05-24T10:23:10.289Z,2.95
2023-05-24T10:25:41.409Z,3.38
2023-05-24T10:28:12.537Z,3.15
2023-05-24T10:30:48.203Z,3.35
2023-05-24T10:33:19.334Z,3.40
2023-05-24T10:35:46.186Z,3.83
2023-05-24T10:38:12.712Z,3.30
2023-05-24T10:40:42.952Z,2.97
2023-05-24T10:43:10.308Z,3.10
2023-05-24T10:45:40.393Z,2.85
2023-05-24T10:48:13.262Z,2.85
2023-05-24T10:50:41.895Z,3.72
2023-05-24T10:53:15.583Z,3.55
2023-05-24T10:55:55.784Z,3.33
2023-05-24T10:58:48.805Z,2.95
2023-05-24T11:01:29.558Z,3.10
2023-05-24T11:04:15.173Z,3.42
2023-05-24T11:06:55.877Z,3.25
2023-05-24T11:09:23.138Z,2.97
2023-05-24T11:11:54.079Z,2.85
2023-05-24T11:14:24.330Z,2.80
2023-05-24T11:16:51.917Z,3.03
2023-05-24T11:19:20.683Z,2.92
2023-05-24T11:21:48.797Z,3.28
2023-05-24T11:24:18.907Z,3.00
2023-05-24T11:26:45.950Z,2.63
2023-05-24T11:29:22.741Z,2.55
2023-05-24T11:31:54.117Z,2.67
2023-05-24T11:34:21.478Z,2.58
2023-05-24T11:36:48.935Z,2.67
2023-05-24T11:39:16.340Z,2.92
2023-05-24T11:41:43.305Z,3.13
2023-05-24T11:44:11.033Z,3.00
2023-05-24T11:46:40.459Z,2.65
2023-05-24T11:49:07.220Z,2.60
2023-05-24T11:51:35.681Z,3.10
2023-05-24T11:54:02.136Z,2.78
2023-05-24T11:56:33.928Z,2.28
2023-05-24T11:59:14.158Z,2.88
2023-05-24T12:01:40.693Z,2.53
2023-05-24T12:04:09.433Z,2.92
2023-05-24T12:06:41.224Z,2.60
2023-05-24T12:09:10.292Z,2.70
2023-05-24T12:11:44.537Z,2.88
2023-05-24T12:14:15.526Z,3.38
2023-05-24T12:16:43.508Z,2.63
2023-05-24T12:19:31.641Z,3.00
2023-05-24T12:22:00.963Z,3.03
2023-05-24T12:24:28.377Z,3.22
2023-05-24T12:27:03.281Z,3.33
2023-05-24T12:29:38.492Z,2.70
2023-05-24T12:32:05.823Z,2.95
2023-05-24T12:34:32.698Z,2.70
2023-05-24T12:36:59.747Z,2.72
2023-05-24T12:39:32.150Z,3.22
2023-05-24T12:42:01.442Z,3.03
2023-05-24T12:44:29.254Z,2.65
2023-05-24T12:46:58.142Z,2.60
2023-05-24T12:49:25.607Z,3.13
2023-05-24T12:51:54.241Z,2.92
2023-05-24T12:54:24.251Z,2.72
2023-05-24T12:56:53.461Z,2.42
2023-05-24T12:59:22.099Z,2.88
2023-05-24T13:01:52.388Z,3.03
2023-05-24T13:04:21.310Z,3.15
2023-05-24T13:06:48.614Z,2.45
2023-05-24T13:09:17.893Z,2.88
2023-05-24T13:11:44.312Z,2.65
2023-05-24T13:14:12.004Z,2.70
2023-05-24T13:16:38.479Z,2.60
2023-05-24T13:19:05.092Z,3.15
2023-05-24T13:21:31.620Z,2.75
2023-05-24T13:23:58.084Z,2.83
2023-05-24T13:26:24.597Z,3.10
2023-05-24T13:29:21.843Z,2.75
2023-05-24T13:31:38.806Z,2.72
2023-05-24T13:34:06.203Z,2.60
2023-05-24T13:36:33.580Z,2.58
2023-05-24T13:39:13.320Z,3.03
2023-05-24T13:41:41.184Z,2.90
2023-05-24T13:44:08.541Z,2.83
2023-05-24T13:46:36.254Z,3.33
2023-05-24T13:49:03.337Z,2.47
2023-05-24T13:51:30.630Z,3.33
2023-05-24T13:53:57.452Z,2.78
2023-05-24T13:56:24.783Z,3.08
2023-05-24T13:58:52.096Z,2.85
2023-05-24T14:01:18.706Z,2.65
2023-05-24T14:03:45.184Z,2.72
2023-05-24T14:06:11.887Z,3.22
2023-05-24T14:08:38.954Z,2.92
2023-05-24T14:11:05.620Z,4.97
2023-05-24T14:14:29.776Z,12.52
2023-05-24T14:16:19.810Z,5.45
2023-05-24T14:18:48.786Z,5.35
2023-05-24T14:21:15.383Z,5.32
2023-05-24T14:23:42.018Z,3.75
2023-05-24T14:26:08.596Z,2.78
2023-05-24T14:28:35.112Z,3.03
2023-05-24T14:31:02.124Z,3.15
2023-05-24T14:33:28.769Z,2.78
2023-05-24T14:35:55.285Z,3.13
2023-05-24T14:38:23.750Z,2.72
2023-05-24T14:40:51.134Z,2.80
2023-05-24T14:43:18.510Z,2.50
2023-05-24T14:45:45.217Z,3.05
2023-05-24T14:48:12.803Z,3.40
2023-05-24T14:50:40.695Z,3.05
2023-05-24T14:53:10.879Z,2.83
2023-05-24T14:55:38.356Z,3.25
2023-05-24T14:58:09.020Z,2.65
2023-05-24T15:00:36.482Z,2.85
2023-05-24T15:03:03.200Z,2.70
2023-05-24T15:05:30.151Z,2.60
2023-05-24T15:07:57.278Z,3.35
2023-05-24T15:10:23.749Z,2.65
2023-05-24T15:12:51.830Z,3.08
2023-05-24T15:15:18.933Z,3.70
2023-05-24T15:17:46.419Z,3.17
2023-05-24T15:20:12.964Z,2.88
2023-05-24T15:22:39.938Z,2.47
2023-05-24T15:25:07.306Z,2.63
2023-05-24T15:27:34.128Z,2.78
2023-05-24T15:30:00.819Z,2.75
2023-05-24T15:32:27.281Z,2.30
2023-05-24T15:34:53.761Z,2.70
2023-05-24T15:37:21.725Z,2.50
2023-05-24T15:39:49.127Z,2.72
2023-05-24T15:42:16.079Z,2.75
2023-05-24T15:44:42.540Z,2.85
2023-05-24T15:47:09.233Z,2.60
2023-05-24T15:49:35.687Z,2.60
2023-05-24T15:52:04.733Z,2.85
2023-05-24T15:54:32.085Z,3.00
2023-05-24T15:57:00.446Z,3.10
2023-05-24T15:59:27.096Z,2.83
2023-05-24T16:01:55.015Z,2.75
2023-05-24T16:04:21.577Z,3.25
2023-05-24T16:06:48.118Z,2.75
2023-05-24T16:09:14.791Z,2.90
2023-05-24T16:11:41.431Z,2.83
2023-05-24T16:14:08.372Z,2.55
2023-05-24T16:16:36.554Z,2.60
2023-05-24T16:19:03.042Z,3.42
2023-05-24T16:21:29.478Z,2.97
2023-05-24T16:23:56.035Z,2.80
2023-05-24T16:26:22.483Z,3.10
2023-05-24T16:28:49.898Z,2.80
2023-05-24T16:31:16.504Z,2.33
2023-05-24T16:33:43.063Z,2.50
2023-05-24T16:36:09.518Z,2.83
2023-05-24T16:38:37.336Z,2.88
2023-05-24T16:41:05.968Z,2.63
2023-05-24T16:43:33.001Z,2.85
2023-05-24T16:46:00.649Z,2.97
2023-05-24T16:48:31.420Z,2.33
2023-05-24T16:50:58.338Z,2.53
2023-05-24T16:53:26.621Z,2.50
2023-05-24T16:55:54.648Z,2.67
2023-05-24T16:58:22.261Z,2.70
2023-05-24T17:00:48.981Z,2.72
2023-05-24T17:03:15.637Z,2.38
2023-05-24T17:05:42.418Z,2.40
2023-05-24T17:08:08.878Z,2.35
2023-05-24T17:10:35.510Z,2.70
2023-05-24T17:13:02.203Z,2.95
2023-05-24T17:15:28.631Z,2.60
2023-05-24T17:17:56.020Z,2.45
2023-05-24T17:20:22.732Z,2.00
2023-05-24T17:22:49.430Z,3.08
2023-05-24T17:25:16.542Z,2.58
2023-05-24T17:27:42.991Z,2.85
2023-05-24T17:30:09.987Z,2.50
2023-05-24T17:32:36.741Z,2.70
2023-05-24T17:35:03.701Z,2.80
2023-05-24T17:37:30.486Z,2.72
2023-05-24T17:39:56.959Z,2.47
2023-05-24T17:42:24.707Z,2.85
2023-05-24T17:44:51.180Z,3.03
2023-05-24T17:47:17.723Z,2.60
2023-05-24T17:49:44.570Z,2.80
2023-05-24T17:52:13.931Z,2.60
2023-05-24T17:54:40.668Z,3.00
2023-05-24T17:57:07.701Z,2.92
2023-05-24T17:59:34.165Z,3.20
2023-05-24T18:02:01.010Z,3.08
2023-05-24T18:04:27.714Z,3.25
2023-05-24T18:06:55.268Z,3.08
2023-05-24T18:09:22.017Z,2.50
2023-05-24T18:11:49.496Z,3.05
2023-05-24T18:14:16.031Z,2.70
2023-05-24T18:16:42.941Z,3.40
2023-05-24T18:19:09.733Z,2.72
2023-05-24T18:21:36.731Z,3.17
2023-05-24T18:24:03.268Z,3.03
2023-05-24T18:26:30.019Z,3.38
2023-05-24T18:28:56.529Z,2.45
2023-05-24T18:31:23.034Z,3.15
2023-05-24T18:33:49.737Z,2.92
2023-05-24T18:36:16.449Z,3.00
2023-05-24T18:38:44.779Z,3.25
2023-05-24T18:41:12.128Z,2.95
2023-05-24T18:43:39.525Z,3.00
2023-05-24T18:46:06.338Z,3.30
2023-05-24T18:48:32.786Z,3.08
2023-05-24T18:50:59.309Z,3.10
2023-05-24T18:53:25.917Z,3.03
2023-05-24T18:55:52.433Z,3.42
2023-05-24T18:58:18.840Z,3.33
2023-05-24T19:00:45.384Z,2.83
2023-05-24T19:03:12.088Z,2.92
2023-05-24T19:05:41.480Z,3.13
2023-05-24T19:08:09.913Z,3.17
2023-05-24T19:10:36.808Z,3.30
2023-05-24T19:13:03.372Z,2.83
2023-05-24T19:15:29.878Z,3.10
2023-05-24T19:17:57.720Z,2.97
2023-05-24T19:20:24.410Z,2.67
2023-05-24T19:22:50.904Z,3.22
2023-05-24T19:25:17.450Z,2.75
2023-05-24T19:27:57.926Z,3.13
2023-05-24T19:30:25.436Z,3.15
2023-05-24T19:32:52.192Z,3.22
2023-05-24T19:35:18.663Z,3.38
2023-05-24T19:37:45.197Z,3.47
2023-05-24T19:40:11.763Z,3.60
2023-05-24T19:42:38.206Z,3.20
2023-05-24T19:45:05.201Z,3.58
2023-05-24T19:47:31.787Z,3.00
2023-05-24T19:49:58.385Z,3.30
2023-05-24T19:52:24.949Z,3.63
2023-05-24T19:54:51.418Z,3.30
2023-05-24T19:57:17.861Z,3.22
2023-05-24T19:59:44.363Z,2.63
2023-05-24T20:02:11.305Z,2.85
2023-05-24T20:04:41.642Z,3.03
2023-05-24T20:07:08.808Z,3.42
2023-05-24T20:09:36.000Z,3.58
2023-05-24T20:12:02.674Z,2.67
2023-05-24T20:14:31.356Z,3.13
2023-05-24T20:16:58.505Z,3.17
2023-05-24T20:19:26.123Z,3.35
2023-05-24T20:21:52.679Z,3.20
2023-05-24T20:24:19.110Z,2.97
2023-05-24T20:26:45.587Z,3.13
2023-05-24T20:29:12.039Z,3.17
2023-05-24T20:31:38.601Z,3.72
2023-05-24T20:34:05.218Z,3.63
2023-05-24T20:36:32.657Z,3.47
2023-05-24T20:38:59.106Z,3.15
2023-05-24T20:41:26.401Z,3.63
2023-05-24T20:43:52.830Z,3.22
2023-05-24T20:46:19.350Z,3.30
2023-05-24T20:48:46.230Z,3.17
2023-05-24T20:51:12.680Z,3.40
2023-05-24T20:53:39.297Z,3.45
2023-05-24T20:56:05.933Z,3.33
2023-05-24T20:58:32.428Z,2.95
2023-05-24T21:00:59.263Z,3.63
2023-05-24T21:03:25.874Z,3.08
2023-05-24T21:05:52.324Z,2.97
2023-05-24T21:08:18.770Z,3.22
2023-05-24T21:10:45.281Z,2.70
2023-05-24T21:13:11.820Z,3.10
2023-05-24T21:15:38.302Z,3.03
2023-05-24T21:18:05.196Z,3.55
2023-05-24T21:20:31.733Z,3.47
2023-05-24T21:22:58.515Z,3.42
2023-05-24T21:25:25.046Z,3.08
2023-05-24T21:27:51.830Z,3.22
2023-05-24T21:30:18.274Z,3.53
2023-05-24T21:32:45.338Z,3.25
2023-05-24T21:35:11.788Z,3.45
2023-05-24T21:37:38.474Z,3.03
2023-05-24T21:40:06.166Z,3.20
2023-05-24T21:42:32.594Z,3.05
2023-05-24T21:44:59.002Z,2.90
2023-05-24T21:47:25.478Z,3.10
2023-05-24T21:49:51.909Z,3.22
2023-05-24T21:52:19.384Z,3.30
2023-05-24T21:54:45.974Z,3.25
2023-05-24T21:57:12.501Z,3.47
2023-05-24T21:59:38.946Z,3.42
2023-05-24T22:02:05.693Z,3.63
2023-05-24T22:04:32.393Z,3.50
2023-05-24T22:06:59.172Z,3.92
2023-05-24T22:09:25.694Z,3.70
2023-05-24T22:11:52.557Z,3.80
2023-05-24T22:14:19.293Z,3.75
2023-05-24T22:16:45.851Z,3.60
2023-05-24T22:19:14.942Z,3.50
2023-05-24T22:21:43.535Z,3.42
2023-05-24T22:24:10.380Z,3.63
2023-05-24T22:26:37.119Z,3.70
2023-05-24T22:29:04.230Z,3.63
2023-05-24T22:31:33.160Z,3.83
2023-05-24T22:34:02.246Z,3.30
2023-05-24T22:36:33.236Z,3.70
2023-05-24T22:39:02.666Z,4.13
2023-05-24T22:41:29.389Z,3.92
2023-05-24T22:43:57.100Z,4.05
2023-05-24T22:46:24.244Z,4.55
2023-05-24T22:48:52.579Z,4.75
2023-05-24T22:51:19.971Z,3.80
2023-05-24T22:53:47.408Z,4.40
2023-05-24T22:56:14.029Z,4.30
2023-05-24T22:58:40.532Z,4.47
2023-05-24T23:01:07.526Z,4.40
2023-05-24T23:03:34.025Z,4.15
2023-05-24T23:06:04.031Z,4.15
2023-05-24T23:08:34.297Z,4.82
2023-05-24T23:11:01.120Z,4.72
2023-05-24T23:13:35.791Z,4.15
2023-05-24T23:16:02.544Z,4.45
2023-05-24T23:18:29.111Z,4.40
2023-05-24T23:20:56.074Z,4.43
2023-05-24T23:23:22.992Z,4.10
2023-05-24T23:25:53.259Z,3.95
2023-05-24T23:28:19.849Z,4.45
2023-05-24T23:30:46.463Z,4.30
2023-05-24T23:33:12.973Z,4.25
2023-05-24T23:35:39.877Z,4.35
2023-05-24T23:38:06.785Z,4.15
2023-05-24T23:40:34.301Z,4.60
2023-05-24T23:43:00.787Z,4.00
2023-05-24T23:45:27.350Z,4.13
2023-05-24T23:47:53.928Z,4.18
2023-05-24T23:50:22.363Z,4.38
2023-05-24T23:52:49.390Z,3.92
2023-05-24T23:55:16.244Z,4.38
2023-05-24T23:57:43.086Z,4.13
